sensor_id;sensor_type;location;lat;lon;timestamp;temperature;humidity
10417;DHT22;62605;49.432;8.680;2023-04-24T00:01:06;12.10;99.90
10417;DHT22;62605;49.432;8.680;2023-04-24T00:03:34;12.10;99.90
10417;DHT22;62605;49.432;8.680;2023-04-24T00:06:03;12.10;99.90
10417;DHT22;62605;49.432;8.680;2023-04-24T00:08:30;12.10;99.90
10417;DHT22;62605;49.432;8.680;2023-04-24T00:11:00;12.10;99.90
10417;DHT22;62605;49.432;8.680;2023-04-24T00:13:28;12.10;99.90
10417;DHT22;62605;49.432;8.680;2023-04-24T00:15:55;12.10;99.90
10417;DHT22;62605;49.432;8.680;2023-04-24T00:18:22;12.10;99.90
10417;DHT22;62605;49.432;8.680;2023-04-24T00:20:49;12.10;99.90
10417;DHT22;62605;49.432;8.680;2023-04-24T00:23:18;12.00;99.90
10417;DHT22;62605;49.432;8.680;2023-04-24T00:25:45;12.00;99.90
10417;DHT22;62605;49.432;8.680;2023-04-24T00:28:12;12.00;99.90
10417;DHT22;62605;49.432;8.680;2023-04-24T00:30:40;12.00;99.90
10417;DHT22;62605;49.432;8.680;2023-04-24T00:33:07;12.00;99.90
10417;DHT22;62605;49.432;8.680;2023-04-24T00:35:34;12.10;99.90
10417;DHT22;62605;49.432;8.680;2023-04-24T00:38:01;12.10;99.90
10417;DHT22;62605;49.432;8.680;2023-04-24T00:40:30;12.10;99.90
10417;DHT22;62605;49.432;8.680;2023-04-24T00:42:57;12.10;99.90
10417;DHT22;62605;49.432;8.680;2023-04-24T00:45:24;12.10;99.90
10417;DHT22;62605;49.432;8.680;2023-04-24T00:47:52;12.10;99.90
10417;DHT22;62605;49.432;8.680;2023-04-24T00:50:21;12.10;99.90
10417;DHT22;62605;49.432;8.680;2023-04-24T00:52:48;12.00;99.90
10417;DHT22;62605;49.432;8.680;2023-04-24T00:55:15;12.10;99.90
10417;DHT22;62605;49.432;8.680;2023-04-24T00:57:44;12.00;99.90
10417;DHT22;62605;49.432;8.680;2023-04-24T01:00:12;12.10;99.90
10417;DHT22;62605;49.432;8.680;2023-04-24T01:02:41;12.10;99.90
10417;DHT22;62605;49.432;8.680;2023-04-24T01:05:11;12.10;99.90
10417;DHT22;62605;49.432;8.680;2023-04-24T01:07:39;12.10;99.90
10417;DHT22;62605;49.432;8.680;2023-04-24T01:10:10;12.10;99.90
10417;DHT22;62605;49.432;8.680;2023-04-24T01:12:37;12.10;99.90
10417;DHT22;62605;49.432;8.680;2023-04-24T01:15:07;12.10;99.90
10417;DHT22;62605;49.432;8.680;2023-04-24T01:17:35;12.10;99.90
10417;DHT22;62605;49.432;8.680;2023-04-24T01:20:03;12.10;99.90
10417;DHT22;62605;49.432;8.680;2023-04-24T01:22:33;12.10;99.90
10417;DHT22;62605;49.432;8.680;2023-04-24T01:25:00;12.10;99.90
10417;DHT22;62605;49.432;8.680;2023-04-24T01:27:27;12.10;99.90
10417;DHT22;62605;49.432;8.680;2023-04-24T01:29:54;12.10;99.90
10417;DHT22;62605;49.432;8.680;2023-04-24T01:32:21;12.10;99.90
10417;DHT22;62605;49.432;8.680;2023-04-24T01:34:48;12.10;99.90
10417;DHT22;62605;49.432;8.680;2023-04-24T01:37:15;12.10;99.90
10417;DHT22;62605;49.432;8.680;2023-04-24T01:39:44;12.10;99.90
10417;DHT22;62605;49.432;8.680;2023-04-24T01:42:12;12.10;99.90
10417;DHT22;62605;49.432;8.680;2023-04-24T01:44:40;12.00;99.90
10417;DHT22;62605;49.432;8.680;2023-04-24T01:47:08;12.00;99.90
10417;DHT22;62605;49.432;8.680;2023-04-24T01:49:35;12.00;99.90
10417;DHT22;62605;49.432;8.680;2023-04-24T01:52:03;12.00;99.90
10417;DHT22;62605;49.432;8.680;2023-04-24T01:54:30;12.00;99.90
10417;DHT22;62605;49.432;8.680;2023-04-24T01:56:59;12.00;99.90
10417;DHT22;62605;49.432;8.680;2023-04-24T01:59:28;12.00;99.90
10417;DHT22;62605;49.432;8.680;2023-04-24T02:01:55;12.10;99.90
10417;DHT22;62605;49.432;8.680;2023-04-24T02:04:22;12.00;99.90
10417;DHT22;62605;49.432;8.680;2023-04-24T02:06:49;12.10;99.90
10417;DHT22;62605;49.432;8.680;2023-04-24T02:09:16;12.10;99.90
10417;DHT22;62605;49.432;8.680;2023-04-24T02:11:43;12.10;99.90
10417;DHT22;62605;49.432;8.680;2023-04-24T02:14:12;12.00;99.90
10417;DHT22;62605;49.432;8.680;2023-04-24T02:16:39;12.00;99.90
10417;DHT22;62605;49.432;8.680;2023-04-24T02:19:06;12.10;99.90
10417;DHT22;62605;49.432;8.680;2023-04-24T02:21:33;12.10;99.90
10417;DHT22;62605;49.432;8.680;2023-04-24T02:24:00;12.00;99.90
10417;DHT22;62605;49.432;8.680;2023-04-24T02:26:27;12.10;99.90
10417;DHT22;62605;49.432;8.680;2023-04-24T02:28:56;12.10;99.90
10417;DHT22;62605;49.432;8.680;2023-04-24T02:31:25;12.00;99.90
10417;DHT22;62605;49.432;8.680;2023-04-24T02:33:52;12.00;99.90
10417;DHT22;62605;49.432;8.680;2023-04-24T02:36:19;12.00;99.90
10417;DHT22;62605;49.432;8.680;2023-04-24T02:38:46;12.00;99.90
10417;DHT22;62605;49.432;8.680;2023-04-24T02:41:13;12.00;99.90
10417;DHT22;62605;49.432;8.680;2023-04-24T02:43:40;11.90;99.90
10417;DHT22;62605;49.432;8.680;2023-04-24T02:46:07;11.90;99.90
10417;DHT22;62605;49.432;8.680;2023-04-24T02:48:35;11.90;99.90
10417;DHT22;62605;49.432;8.680;2023-04-24T02:51:03;11.90;99.90
10417;DHT22;62605;49.432;8.680;2023-04-24T02:53:30;12.00;99.90
10417;DHT22;62605;49.432;8.680;2023-04-24T02:55:57;12.00;99.90
10417;DHT22;62605;49.432;8.680;2023-04-24T02:58:24;11.90;99.90
10417;DHT22;62605;49.432;8.680;2023-04-24T03:00:53;11.90;99.90
10417;DHT22;62605;49.432;8.680;2023-04-24T03:03:21;11.90;99.90
10417;DHT22;62605;49.432;8.680;2023-04-24T03:05:50;11.90;99.90
10417;DHT22;62605;49.432;8.680;2023-04-24T03:08:17;11.90;99.90
10417;DHT22;62605;49.432;8.680;2023-04-24T03:10:44;11.90;99.90
10417;DHT22;62605;49.432;8.680;2023-04-24T03:13:11;11.80;99.90
10417;DHT22;62605;49.432;8.680;2023-04-24T03:15:38;11.60;99.90
10417;DHT22;62605;49.432;8.680;2023-04-24T03:18:05;11.00;1.00
10417;DHT22;62605;49.432;8.680;2023-04-24T03:20:32;10.70;99.90
10417;DHT22;62605;49.432;8.680;2023-04-24T03:23:00;10.60;1.00
10417;DHT22;62605;49.432;8.680;2023-04-24T03:25:28;10.50;78.40
10417;DHT22;62605;49.432;8.680;2023-04-24T03:27:55;10.50;99.90
10417;DHT22;62605;49.432;8.680;2023-04-24T03:30:22;10.40;1.00
10417;DHT22;62605;49.432;8.680;2023-04-24T03:32:49;10.40;99.90
10417;DHT22;62605;49.432;8.680;2023-04-24T03:35:16;10.30;99.90
10417;DHT22;62605;49.432;8.680;2023-04-24T03:37:43;10.30;99.90
10417;DHT22;62605;49.432;8.680;2023-04-24T03:40:11;10.30;99.90
10417;DHT22;62605;49.432;8.680;2023-04-24T03:42:38;10.30;99.90
10417;DHT22;62605;49.432;8.680;2023-04-24T03:45:07;10.30;99.90
10417;DHT22;62605;49.432;8.680;2023-04-24T03:47:34;10.30;1.00
10417;DHT22;62605;49.432;8.680;2023-04-24T03:50:01;10.30;1.00
10417;DHT22;62605;49.432;8.680;2023-04-24T03:52:28;10.20;99.90
10417;DHT22;62605;49.432;8.680;2023-04-24T03:54:57;10.20;99.90
10417;DHT22;62605;49.432;8.680;2023-04-24T03:57:25;10.20;99.90
10417;DHT22;62605;49.432;8.680;2023-04-24T03:59:52;10.20;99.90
10417;DHT22;62605;49.432;8.680;2023-04-24T04:02:20;10.20;99.90
10417;DHT22;62605;49.432;8.680;2023-04-24T04:04:47;10.20;99.90
10417;DHT22;62605;49.432;8.680;2023-04-24T04:07:14;10.20;99.90
10417;DHT22;62605;49.432;8.680;2023-04-24T04:09:41;10.20;99.90
10417;DHT22;62605;49.432;8.680;2023-04-24T04:12:08;10.20;99.90
10417;DHT22;62605;49.432;8.680;2023-04-24T04:14:36;10.30;99.90
10417;DHT22;62605;49.432;8.680;2023-04-24T04:17:03;10.20;99.90
10417;DHT22;62605;49.432;8.680;2023-04-24T04:19:30;10.10;99.90
10417;DHT22;62605;49.432;8.680;2023-04-24T04:21:57;10.10;99.90
10417;DHT22;62605;49.432;8.680;2023-04-24T04:24:24;10.10;99.90
10417;DHT22;62605;49.432;8.680;2023-04-24T04:26:52;10.00;99.90
10417;DHT22;62605;49.432;8.680;2023-04-24T04:29:22;9.90;99.90
10417;DHT22;62605;49.432;8.680;2023-04-24T04:31:51;9.80;99.90
10417;DHT22;62605;49.432;8.680;2023-04-24T04:34:18;9.80;99.90
10417;DHT22;62605;49.432;8.680;2023-04-24T04:36:45;9.70;99.90
10417;DHT22;62605;49.432;8.680;2023-04-24T04:39:12;9.70;99.90
10417;DHT22;62605;49.432;8.680;2023-04-24T04:41:40;9.60;99.90
10417;DHT22;62605;49.432;8.680;2023-04-24T04:44:07;9.70;99.90
10417;DHT22;62605;49.432;8.680;2023-04-24T04:46:35;9.60;99.90
10417;DHT22;62605;49.432;8.680;2023-04-24T04:49:05;9.60;99.90
10417;DHT22;62605;49.432;8.680;2023-04-24T04:51:34;9.60;99.90
10417;DHT22;62605;49.432;8.680;2023-04-24T04:54:01;9.70;99.90
10417;DHT22;62605;49.432;8.680;2023-04-24T04:56:28;9.70;99.90
10417;DHT22;62605;49.432;8.680;2023-04-24T04:58:55;9.70;99.90
10417;DHT22;62605;49.432;8.680;2023-04-24T05:01:24;9.70;99.90
10417;DHT22;62605;49.432;8.680;2023-04-24T05:03:53;9.70;99.90
10417;DHT22;62605;49.432;8.680;2023-04-24T05:06:21;9.80;99.90
10417;DHT22;62605;49.432;8.680;2023-04-24T05:08:48;9.80;99.90
10417;DHT22;62605;49.432;8.680;2023-04-24T05:11:15;9.70;99.90
10417;DHT22;62605;49.432;8.680;2023-04-24T05:13:43;9.80;99.90
10417;DHT22;62605;49.432;8.680;2023-04-24T05:16:10;9.90;99.90
10417;DHT22;62605;49.432;8.680;2023-04-24T05:18:37;9.90;99.90
10417;DHT22;62605;49.432;8.680;2023-04-24T05:21:06;10.00;99.90
10417;DHT22;62605;49.432;8.680;2023-04-24T05:23:36;10.00;99.90
10417;DHT22;62605;49.432;8.680;2023-04-24T05:26:05;10.00;99.90
10417;DHT22;62605;49.432;8.680;2023-04-24T05:28:32;10.20;99.90
10417;DHT22;62605;49.432;8.680;2023-04-24T05:31:04;10.30;99.90
10417;DHT22;62605;49.432;8.680;2023-04-24T05:33:32;10.30;99.90
10417;DHT22;62605;49.432;8.680;2023-04-24T05:36:04;10.40;99.90
10417;DHT22;62605;49.432;8.680;2023-04-24T05:38:40;10.40;99.90
10417;DHT22;62605;49.432;8.680;2023-04-24T05:41:09;10.40;99.90
10417;DHT22;62605;49.432;8.680;2023-04-24T05:43:46;10.60;99.90
10417;DHT22;62605;49.432;8.680;2023-04-24T05:46:17;10.60;99.90
10417;DHT22;62605;49.432;8.680;2023-04-24T05:48:46;10.60;99.90
10417;DHT22;62605;49.432;8.680;2023-04-24T05:51:18;10.60;99.90
10417;DHT22;62605;49.432;8.680;2023-04-24T05:54:02;10.50;99.90
10417;DHT22;62605;49.432;8.680;2023-04-24T05:56:33;10.40;99.90
10417;DHT22;62605;49.432;8.680;2023-04-24T05:59:07;10.60;99.90
10417;DHT22;62605;49.432;8.680;2023-04-24T06:01:38;10.60;99.90
10417;DHT22;62605;49.432;8.680;2023-04-24T06:04:07;10.80;99.90
10417;DHT22;62605;49.432;8.680;2023-04-24T06:06:35;10.70;99.90
10417;DHT22;62605;49.432;8.680;2023-04-24T06:09:04;10.60;99.90
10417;DHT22;62605;49.432;8.680;2023-04-24T06:11:32;10.60;99.90
10417;DHT22;62605;49.432;8.680;2023-04-24T06:13:59;10.60;99.90
10417;DHT22;62605;49.432;8.680;2023-04-24T06:16:26;10.70;99.90
10417;DHT22;62605;49.432;8.680;2023-04-24T06:18:53;10.70;99.90
10417;DHT22;62605;49.432;8.680;2023-04-24T06:21:21;10.60;99.90
10417;DHT22;62605;49.432;8.680;2023-04-24T06:23:48;10.60;99.90
10417;DHT22;62605;49.432;8.680;2023-04-24T06:26:18;10.50;1.00
10417;DHT22;62605;49.432;8.680;2023-04-24T06:28:46;10.50;99.90
10417;DHT22;62605;49.432;8.680;2023-04-24T06:31:14;10.40;99.90
10417;DHT22;62605;49.432;8.680;2023-04-24T06:33:41;10.50;99.90
10417;DHT22;62605;49.432;8.680;2023-04-24T06:36:09;10.40;99.90
10417;DHT22;62605;49.432;8.680;2023-04-24T06:38:36;10.50;99.90
10417;DHT22;62605;49.432;8.680;2023-04-24T06:41:03;10.60;99.90
10417;DHT22;62605;49.432;8.680;2023-04-24T06:43:32;10.70;99.90
10417;DHT22;62605;49.432;8.680;2023-04-24T06:46:00;10.70;99.90
10417;DHT22;62605;49.432;8.680;2023-04-24T06:48:29;10.70;99.90
10417;DHT22;62605;49.432;8.680;2023-04-24T06:50:56;10.60;99.90
10417;DHT22;62605;49.432;8.680;2023-04-24T06:53:23;10.60;99.90
10417;DHT22;62605;49.432;8.680;2023-04-24T06:55:50;10.60;99.90
10417;DHT22;62605;49.432;8.680;2023-04-24T06:58:17;10.60;99.90
10417;DHT22;62605;49.432;8.680;2023-04-24T07:00:46;10.60;99.90
10417;DHT22;62605;49.432;8.680;2023-04-24T07:03:13;10.60;99.90
10417;DHT22;62605;49.432;8.680;2023-04-24T07:05:40;10.60;99.90
10417;DHT22;62605;49.432;8.680;2023-04-24T07:08:07;10.40;99.90
10417;DHT22;62605;49.432;8.680;2023-04-24T07:10:34;10.00;99.90
10417;DHT22;62605;49.432;8.680;2023-04-24T07:13:04;9.90;99.90
10417;DHT22;62605;49.432;8.680;2023-04-24T07:15:32;9.90;99.90
10417;DHT22;62605;49.432;8.680;2023-04-24T07:18:04;9.70;99.90
10417;DHT22;62605;49.432;8.680;2023-04-24T07:20:31;9.70;99.90
10417;DHT22;62605;49.432;8.680;2023-04-24T07:22:59;9.80;99.90
10417;DHT22;62605;49.432;8.680;2023-04-24T07:25:26;9.90;99.90
10417;DHT22;62605;49.432;8.680;2023-04-24T07:27:53;10.00;99.90
10417;DHT22;62605;49.432;8.680;2023-04-24T07:30:20;10.10;99.90
10417;DHT22;62605;49.432;8.680;2023-04-24T07:32:47;10.00;99.90
10417;DHT22;62605;49.432;8.680;2023-04-24T07:35:16;10.00;99.90
10417;DHT22;62605;49.432;8.680;2023-04-24T07:37:43;10.10;99.90
10417;DHT22;62605;49.432;8.680;2023-04-24T07:40:11;10.30;99.90
10417;DHT22;62605;49.432;8.680;2023-04-24T07:42:38;10.40;99.90
10417;DHT22;62605;49.432;8.680;2023-04-24T07:47:43;10.30;99.90
10417;DHT22;62605;49.432;8.680;2023-04-24T07:50:49;10.40;99.90
10417;DHT22;62605;49.432;8.680;2023-04-24T07:53:26;10.40;99.90
10417;DHT22;62605;49.432;8.680;2023-04-24T07:58:19;10.80;99.90
10417;DHT22;62605;49.432;8.680;2023-04-24T08:01:04;10.70;99.90
10417;DHT22;62605;49.432;8.680;2023-04-24T08:03:32;10.80;99.90
10417;DHT22;62605;49.432;8.680;2023-04-24T08:09:12;11.20;99.90
10417;DHT22;62605;49.432;8.680;2023-04-24T08:11:39;11.30;99.90
10417;DHT22;62605;49.432;8.680;2023-04-24T08:14:07;11.20;99.90
10417;DHT22;62605;49.432;8.680;2023-04-24T08:16:41;11.50;99.90
10417;DHT22;62605;49.432;8.680;2023-04-24T08:22:46;12.00;99.90
10417;DHT22;62605;49.432;8.680;2023-04-24T08:28:58;11.90;99.90
10417;DHT22;62605;49.432;8.680;2023-04-24T08:31:26;11.80;99.90
10417;DHT22;62605;49.432;8.680;2023-04-24T08:33:54;11.80;99.90
10417;DHT22;62605;49.432;8.680;2023-04-24T08:36:22;11.60;99.90
10417;DHT22;62605;49.432;8.680;2023-04-24T08:38:50;11.70;99.90
10417;DHT22;62605;49.432;8.680;2023-04-24T08:41:18;11.60;99.90
10417;DHT22;62605;49.432;8.680;2023-04-24T08:43:47;11.60;99.90
10417;DHT22;62605;49.432;8.680;2023-04-24T08:46:21;11.50;99.90
10417;DHT22;62605;49.432;8.680;2023-04-24T08:48:58;11.60;99.90
10417;DHT22;62605;49.432;8.680;2023-04-24T08:51:32;11.50;99.90
10417;DHT22;62605;49.432;8.680;2023-04-24T08:54:00;11.70;99.90
10417;DHT22;62605;49.432;8.680;2023-04-24T08:56:29;11.40;99.90
10417;DHT22;62605;49.432;8.680;2023-04-24T09:10:20;12.10;99.90
10417;DHT22;62605;49.432;8.680;2023-04-24T09:16:39;11.80;99.90
10417;DHT22;62605;49.432;8.680;2023-04-24T09:33:12;11.60;99.90
10417;DHT22;62605;49.432;8.680;2023-04-24T09:35:41;11.60;99.90
10417;DHT22;62605;49.432;8.680;2023-04-24T09:38:09;11.30;99.90
10417;DHT22;62605;49.432;8.680;2023-04-24T09:40:36;11.20;99.90
10417;DHT22;62605;49.432;8.680;2023-04-24T09:43:03;11.30;99.90
10417;DHT22;62605;49.432;8.680;2023-04-24T09:45:36;11.40;99.90
10417;DHT22;62605;49.432;8.680;2023-04-24T09:48:03;11.40;99.90
10417;DHT22;62605;49.432;8.680;2023-04-24T09:50:32;11.70;99.90
10417;DHT22;62605;49.432;8.680;2023-04-24T09:53:02;11.90;99.90
10417;DHT22;62605;49.432;8.680;2023-04-24T09:55:30;12.00;99.90
10417;DHT22;62605;49.432;8.680;2023-04-24T09:57:58;12.30;99.90
10417;DHT22;62605;49.432;8.680;2023-04-24T10:00:27;12.30;99.90
10417;DHT22;62605;49.432;8.680;2023-04-24T10:02:58;12.20;99.90
10417;DHT22;62605;49.432;8.680;2023-04-24T10:05:28;12.20;99.90
10417;DHT22;62605;49.432;8.680;2023-04-24T10:08:02;12.10;99.90
10417;DHT22;62605;49.432;8.680;2023-04-24T10:10:29;12.00;99.90
10417;DHT22;62605;49.432;8.680;2023-04-24T10:12:57;11.90;99.90
10417;DHT22;62605;49.432;8.680;2023-04-24T10:15:26;11.80;99.90
10417;DHT22;62605;49.432;8.680;2023-04-24T10:17:53;11.80;99.90
10417;DHT22;62605;49.432;8.680;2023-04-24T10:20:22;11.70;99.90
10417;DHT22;62605;49.432;8.680;2023-04-24T10:22:51;11.70;99.90
10417;DHT22;62605;49.432;8.680;2023-04-24T10:25:22;11.80;99.90
10417;DHT22;62605;49.432;8.680;2023-04-24T10:27:50;11.70;99.90
10417;DHT22;62605;49.432;8.680;2023-04-24T10:30:18;11.50;99.90
10417;DHT22;62605;49.432;8.680;2023-04-24T10:32:45;11.60;99.90
10417;DHT22;62605;49.432;8.680;2023-04-24T10:35:13;11.60;99.90
10417;DHT22;62605;49.432;8.680;2023-04-24T10:37:44;11.60;99.90
10417;DHT22;62605;49.432;8.680;2023-04-24T10:40:17;11.70;99.90
10417;DHT22;62605;49.432;8.680;2023-04-24T10:42:49;11.60;99.90
10417;DHT22;62605;49.432;8.680;2023-04-24T10:45:18;11.60;99.90
10417;DHT22;62605;49.432;8.680;2023-04-24T10:47:56;11.40;99.90
10417;DHT22;62605;49.432;8.680;2023-04-24T10:50:24;11.60;99.90
10417;DHT22;62605;49.432;8.680;2023-04-24T10:52:51;11.80;99.90
10417;DHT22;62605;49.432;8.680;2023-04-24T10:55:41;12.00;99.90
10417;DHT22;62605;49.432;8.680;2023-04-24T10:58:10;12.00;99.90
10417;DHT22;62605;49.432;8.680;2023-04-24T11:00:39;12.00;99.90
10417;DHT22;62605;49.432;8.680;2023-04-24T11:03:09;12.10;99.90
10417;DHT22;62605;49.432;8.680;2023-04-24T11:05:57;12.20;99.90
10417;DHT22;62605;49.432;8.680;2023-04-24T11:08:29;12.10;99.90
10417;DHT22;62605;49.432;8.680;2023-04-24T11:10:59;12.40;99.90
10417;DHT22;62605;49.432;8.680;2023-04-24T11:14:00;12.10;99.90
10417;DHT22;62605;49.432;8.680;2023-04-24T11:16:26;12.40;99.90
10417;DHT22;62605;49.432;8.680;2023-04-24T11:19:01;12.60;99.90
10417;DHT22;62605;49.432;8.680;2023-04-24T11:21:32;12.20;99.90
10417;DHT22;62605;49.432;8.680;2023-04-24T11:24:29;12.30;99.90
10417;DHT22;62605;49.432;8.680;2023-04-24T11:26:58;12.40;99.90
10417;DHT22;62605;49.432;8.680;2023-04-24T11:29:39;12.60;99.90
10417;DHT22;62605;49.432;8.680;2023-04-24T11:32:25;12.80;99.90
10417;DHT22;62605;49.432;8.680;2023-04-24T11:34:53;12.90;1.00
10417;DHT22;62605;49.432;8.680;2023-04-24T11:37:21;12.80;1.00
10417;DHT22;62605;49.432;8.680;2023-04-24T11:39:51;12.70;1.00
10417;DHT22;62605;49.432;8.680;2023-04-24T11:42:18;12.50;1.00
10417;DHT22;62605;49.432;8.680;2023-04-24T11:44:46;12.50;1.00
10417;DHT22;62605;49.432;8.680;2023-04-24T11:47:14;12.60;1.00
10417;DHT22;62605;49.432;8.680;2023-04-24T11:49:43;12.80;1.00
10417;DHT22;62605;49.432;8.680;2023-04-24T11:52:10;12.80;1.00
10417;DHT22;62605;49.432;8.680;2023-04-24T11:54:37;12.90;1.00
10417;DHT22;62605;49.432;8.680;2023-04-24T11:57:05;12.90;1.00
10417;DHT22;62605;49.432;8.680;2023-04-24T11:59:36;13.00;1.00
10417;DHT22;62605;49.432;8.680;2023-04-24T12:02:03;13.10;1.00
10417;DHT22;62605;49.432;8.680;2023-04-24T12:04:39;13.00;1.00
10417;DHT22;62605;49.432;8.680;2023-04-24T12:07:08;12.80;1.00
10417;DHT22;62605;49.432;8.680;2023-04-24T12:09:42;12.80;1.00
10417;DHT22;62605;49.432;8.680;2023-04-24T12:12:11;12.60;1.00
10417;DHT22;62605;49.432;8.680;2023-04-24T12:14:52;12.50;1.00
10417;DHT22;62605;49.432;8.680;2023-04-24T12:17:24;12.40;1.00
10417;DHT22;62605;49.432;8.680;2023-04-24T12:19:52;12.60;1.00
10417;DHT22;62605;49.432;8.680;2023-04-24T12:22:20;12.60;1.00
10417;DHT22;62605;49.432;8.680;2023-04-24T12:24:58;12.40;1.00
10417;DHT22;62605;49.432;8.680;2023-04-24T12:27:26;12.30;1.00
10417;DHT22;62605;49.432;8.680;2023-04-24T12:29:53;12.40;1.00
10417;DHT22;62605;49.432;8.680;2023-04-24T12:32:22;12.60;1.00
10417;DHT22;62605;49.432;8.680;2023-04-24T12:34:49;12.80;1.00
10417;DHT22;62605;49.432;8.680;2023-04-24T12:37:17;12.90;1.00
10417;DHT22;62605;49.432;8.680;2023-04-24T12:40:10;13.30;1.00
10417;DHT22;62605;49.432;8.680;2023-04-24T12:42:42;14.10;1.00
10417;DHT22;62605;49.432;8.680;2023-04-24T12:45:10;14.00;1.00
10417;DHT22;62605;49.432;8.680;2023-04-24T12:47:38;14.40;1.00
10417;DHT22;62605;49.432;8.680;2023-04-24T12:50:06;14.00;1.00
10417;DHT22;62605;49.432;8.680;2023-04-24T12:52:34;14.00;1.00
10417;DHT22;62605;49.432;8.680;2023-04-24T12:55:02;14.30;1.00
10417;DHT22;62605;49.432;8.680;2023-04-24T12:57:35;14.30;1.00
10417;DHT22;62605;49.432;8.680;2023-04-24T13:00:03;14.10;1.00
10417;DHT22;62605;49.432;8.680;2023-04-24T13:02:31;13.90;1.00
10417;DHT22;62605;49.432;8.680;2023-04-24T13:04:59;14.20;1.00
10417;DHT22;62605;49.432;8.680;2023-04-24T13:07:27;13.80;1.00
10417;DHT22;62605;49.432;8.680;2023-04-24T13:09:55;14.10;1.00
10417;DHT22;62605;49.432;8.680;2023-04-24T13:12:22;13.80;1.00
10417;DHT22;62605;49.432;8.680;2023-04-24T13:14:53;13.70;1.00
10417;DHT22;62605;49.432;8.680;2023-04-24T13:17:21;13.70;1.00
10417;DHT22;62605;49.432;8.680;2023-04-24T13:19:50;13.90;1.00
10417;DHT22;62605;49.432;8.680;2023-04-24T13:22:18;13.70;1.00
10417;DHT22;62605;49.432;8.680;2023-04-24T13:24:45;13.70;1.00
10417;DHT22;62605;49.432;8.680;2023-04-24T13:27:14;13.70;1.00
10417;DHT22;62605;49.432;8.680;2023-04-24T13:29:41;13.40;1.00
10417;DHT22;62605;49.432;8.680;2023-04-24T13:32:09;13.30;1.00
10417;DHT22;62605;49.432;8.680;2023-04-24T13:34:36;13.10;1.00
10417;DHT22;62605;49.432;8.680;2023-04-24T13:37:04;13.10;1.00
10417;DHT22;62605;49.432;8.680;2023-04-24T13:39:31;13.50;1.00
10417;DHT22;62605;49.432;8.680;2023-04-24T13:41:58;13.70;1.00
10417;DHT22;62605;49.432;8.680;2023-04-24T13:44:25;14.00;1.00
10417;DHT22;62605;49.432;8.680;2023-04-24T13:46:55;14.20;1.00
10417;DHT22;62605;49.432;8.680;2023-04-24T13:49:24;14.30;1.00
10417;DHT22;62605;49.432;8.680;2023-04-24T13:51:52;14.10;1.00
10417;DHT22;62605;49.432;8.680;2023-04-24T13:54:19;14.10;1.00
10417;DHT22;62605;49.432;8.680;2023-04-24T13:56:46;14.10;1.00
10417;DHT22;62605;49.432;8.680;2023-04-24T13:59:13;14.00;1.00
10417;DHT22;62605;49.432;8.680;2023-04-24T14:01:41;14.00;1.00
10417;DHT22;62605;49.432;8.680;2023-04-24T14:04:10;13.60;1.00
10417;DHT22;62605;49.432;8.680;2023-04-24T14:06:39;13.50;1.00
10417;DHT22;62605;49.432;8.680;2023-04-24T14:09:06;13.40;1.00
10417;DHT22;62605;49.432;8.680;2023-04-24T14:11:34;13.30;99.90
10417;DHT22;62605;49.432;8.680;2023-04-24T14:14:01;13.10;1.00
10417;DHT22;62605;49.432;8.680;2023-04-24T14:16:28;13.10;1.00
10417;DHT22;62605;49.432;8.680;2023-04-24T14:18:56;13.10;1.00
10417;DHT22;62605;49.432;8.680;2023-04-24T14:21:22;13.00;1.00
10417;DHT22;62605;49.432;8.680;2023-04-24T14:23:51;13.00;1.00
10417;DHT22;62605;49.432;8.680;2023-04-24T14:26:18;12.90;1.00
10417;DHT22;62605;49.432;8.680;2023-04-24T14:28:45;12.70;1.00
10417;DHT22;62605;49.432;8.680;2023-04-24T14:31:12;12.50;1.00
10417;DHT22;62605;49.432;8.680;2023-04-24T14:33:39;12.30;1.00
10417;DHT22;62605;49.432;8.680;2023-04-24T14:36:07;12.10;1.00
10417;DHT22;62605;49.432;8.680;2023-04-24T14:38:34;12.00;1.00
10417;DHT22;62605;49.432;8.680;2023-04-24T14:41:02;11.90;1.00
10417;DHT22;62605;49.432;8.680;2023-04-24T14:43:34;11.90;1.00
10417;DHT22;62605;49.432;8.680;2023-04-24T14:46:02;11.90;1.00
10417;DHT22;62605;49.432;8.680;2023-04-24T14:48:30;11.60;1.00
10417;DHT22;62605;49.432;8.680;2023-04-24T14:50:57;11.40;1.00
10417;DHT22;62605;49.432;8.680;2023-04-24T14:53:24;11.40;1.00
10417;DHT22;62605;49.432;8.680;2023-04-24T14:55:51;11.40;1.00
10417;DHT22;62605;49.432;8.680;2023-04-24T14:58:20;11.40;99.90
10417;DHT22;62605;49.432;8.680;2023-04-24T15:00:47;11.50;99.90
10417;DHT22;62605;49.432;8.680;2023-04-24T15:03:15;11.60;99.90
10417;DHT22;62605;49.432;8.680;2023-04-24T15:05:42;11.70;99.90
10417;DHT22;62605;49.432;8.680;2023-04-24T15:08:09;11.60;99.90
10417;DHT22;62605;49.432;8.680;2023-04-24T15:10:36;11.50;99.90
10417;DHT22;62605;49.432;8.680;2023-04-24T15:13:03;11.60;68.60
10417;DHT22;62605;49.432;8.680;2023-04-24T15:15:32;11.70;99.90
10417;DHT22;62605;49.432;8.680;2023-04-24T15:17:58;11.70;14.40
10417;DHT22;62605;49.432;8.680;2023-04-24T15:20:25;11.60;67.80
10417;DHT22;62605;49.432;8.680;2023-04-24T15:22:52;11.60;99.90
10417;DHT22;62605;49.432;8.680;2023-04-24T15:25:19;11.50;99.90
10417;DHT22;62605;49.432;8.680;2023-04-24T15:27:47;11.60;99.90
10417;DHT22;62605;49.432;8.680;2023-04-24T15:30:14;11.60;99.90
10417;DHT22;62605;49.432;8.680;2023-04-24T15:32:43;11.60;99.90
10417;DHT22;62605;49.432;8.680;2023-04-24T15:35:10;11.60;99.90
10417;DHT22;62605;49.432;8.680;2023-04-24T15:37:37;11.70;99.90
10417;DHT22;62605;49.432;8.680;2023-04-24T15:40:05;11.70;99.90
10417;DHT22;62605;49.432;8.680;2023-04-24T15:42:33;11.70;99.90
10417;DHT22;62605;49.432;8.680;2023-04-24T15:45:00;11.70;99.90
10417;DHT22;62605;49.432;8.680;2023-04-24T15:47:27;11.80;99.90
10417;DHT22;62605;49.432;8.680;2023-04-24T15:49:57;11.90;26.80
10417;DHT22;62605;49.432;8.680;2023-04-24T15:52:24;12.50;1.00
10417;DHT22;62605;49.432;8.680;2023-04-24T15:54:52;13.10;1.00
10417;DHT22;62605;49.432;8.680;2023-04-24T15:57:19;13.20;1.00
10417;DHT22;62605;49.432;8.680;2023-04-24T15:59:47;13.30;1.00
10417;DHT22;62605;49.432;8.680;2023-04-24T16:02:14;13.00;1.00
10417;DHT22;62605;49.432;8.680;2023-04-24T16:04:44;13.10;1.00
10417;DHT22;62605;49.432;8.680;2023-04-24T16:07:13;12.90;1.00
10417;DHT22;62605;49.432;8.680;2023-04-24T16:09:43;13.60;1.00
10417;DHT22;62605;49.432;8.680;2023-04-24T16:12:10;14.10;1.00
10417;DHT22;62605;49.432;8.680;2023-04-24T16:14:38;14.40;1.00
10417;DHT22;62605;49.432;8.680;2023-04-24T16:17:06;13.80;1.00
10417;DHT22;62605;49.432;8.680;2023-04-24T16:19:33;13.80;1.00
10417;DHT22;62605;49.432;8.680;2023-04-24T16:22:01;12.90;1.00
10417;DHT22;62605;49.432;8.680;2023-04-24T16:24:30;12.80;1.00
10417;DHT22;62605;49.432;8.680;2023-04-24T16:26:59;12.70;1.00
10417;DHT22;62605;49.432;8.680;2023-04-24T16:29:27;12.60;1.00